Time;durP1;ratioP1;P1;durP2;ratioP2;P2;SDS_P1;SDS_P2;PMS_P1;PMS_P2;Temp;Humidity;BMP_temperature;BMP_pressure;BME280_temperature;BME280_humidity;BME280_pressure;Samples;Min_cycle;Max_cycle;Signal;HPM_P1;HPM_P2
2022/11/05 00:10:02;;;;;;;;;16.00;11.00;;;;;10.80;65.47;101525.22;5057043;28;45278;-51
2022/11/05 00:17:56;;;;;;;;;12.67;10.33;;;;;10.73;65.82;101530.22;5057024;28;45454;-47
2022/11/05 00:20:21;;;;;;;;;16.00;13.00;;;;;10.74;65.91;101531.94;5055794;28;45376;-52
2022/11/05 00:25:31;;;;;;;;;17.33;14.33;;;;;10.70;66.08;101529.63;5056873;28;45310;-52
2022/11/05 00:28:01;;;;;;;;;10.33;9.33;;;;;10.71;66.02;101526.84;5056900;28;45442;-53
2022/11/05 00:30:27;;;;;;;;;16.00;11.00;;;;;10.71;66.11;101529.50;5056980;28;45236;-52
2022/11/05 00:32:52;;;;;;;;;11.00;11.00;;;;;10.73;66.24;101532.03;5056553;28;46144;-50
2022/11/05 00:35:20;;;;;;;;;16.00;10.67;;;;;10.73;66.00;101529.38;5056740;28;45757;-54
2022/11/05 00:37:46;;;;;;;;;15.67;14.33;;;;;10.73;65.94;101526.72;5038494;28;45343;-51
2022/11/05 00:40:13;;;;;;;;;14.33;11.00;;;;;10.69;66.09;101525.28;5036950;28;45297;-49
2022/11/05 00:45:28;;;;;;;;;12.00;7.33;;;;;10.69;65.82;101536.75;4994149;28;45517;-54
2022/11/05 00:50:38;;;;;;;;;16.67;13.67;;;;;10.65;65.81;101539.81;4994940;28;45486;-53
2022/11/05 00:53:04;;;;;;;;;14.33;6.33;;;;;10.67;65.99;101551.19;4994574;28;45962;-53
2022/11/05 00:55:40;;;;;;;;;18.00;14.67;;;;;10.68;65.79;101552.88;4994318;28;45944;-50
2022/11/05 00:58:09;;;;;;;;;11.33;9.67;;;;;10.67;66.09;101540.53;4994766;28;45447;-56
2022/11/05 01:00:36;;;;;;;;;8.67;8.67;;;;;10.64;65.99;101546.94;4994703;28;45492;-54
2022/11/05 01:03:06;;;;;;;;;15.00;14.00;;;;;10.64;65.92;101546.94;4993861;28;45444;-51
2022/11/05 01:05:33;;;;;;;;;17.00;12.00;;;;;10.67;65.98;101551.19;4994381;28;45480;-54
2022/11/05 01:07:59;;;;;;;;;11.67;10.00;;;;;10.65;66.10;101545.13;4994423;28;45441;-48
2022/11/05 01:10:26;;;;;;;;;10.00;10.00;;;;;10.66;65.98;101541.50;4993206;28;45576;-53
2022/11/05 01:12:51;;;;;;;;;12.00;9.00;;;;;10.64;65.74;101538.97;4993987;28;46405;-54
2022/11/05 01:15:17;;;;;;;;;8.67;8.67;;;;;10.63;66.02;101539.09;4994217;28;45344;-52
2022/11/05 01:17:43;;;;;;;;;16.67;7.00;;;;;10.58;65.95;101542.16;4994517;28;45467;-56
2022/11/05 01:20:09;;;;;;;;;16.00;10.67;;;;;10.64;65.93;101554.09;4996076;28;45552;-55
2022/11/05 01:22:34;;;;;;;;;13.33;7.67;;;;;10.62;65.89;101543.59;5018875;28;46248;-54
2022/11/05 01:25:00;;;;;;;;;10.67;10.67;;;;;10.61;65.91;101538.38;5041032;28;45390;-54
2022/11/05 01:27:25;;;;;;;;;13.67;10.33;;;;;10.63;65.81;101542.59;5059739;28;45507;-52
2022/11/05 01:29:50;;;;;;;;;15.33;10.33;;;;;10.61;66.13;101535.72;5059875;28;45315;-52
2022/11/05 01:32:16;;;;;;;;;10.67;10.00;;;;;10.64;66.11;101538.13;5059539;28;46021;-50
2022/11/05 01:34:41;;;;;;;;;14.67;8.67;;;;;10.63;66.41;101537.28;5059734;28;45525;-53
2022/11/05 01:37:07;;;;;;;;;14.33;10.00;;;;;10.64;66.00;101540.78;5059586;28;45473;-56
2022/11/05 01:39:32;;;;;;;;;16.67;10.33;;;;;10.63;66.10;101541.78;5059594;28;45549;-52
2022/11/05 01:41:57;;;;;;;;;11.67;10.00;;;;;10.64;66.00;101540.78;5058924;28;47043;-54
2022/11/05 01:44:50;;;;;;;;;10.67;10.67;;;;;10.63;65.70;101536.44;5059290;28;45466;-55
2022/11/05 01:47:40;;;;;;;;;7.67;7.67;;;;;10.61;65.87;101535.72;5059357;28;45438;-54
2022/11/05 01:50:12;;;;;;;;;14.67;10.67;;;;;10.60;66.17;101548.19;5059431;28;45250;-47
2022/11/05 01:52:38;;;;;;;;;14.33;8.00;;;;;10.59;66.04;101546.50;5058901;28;46793;-46
2022/11/05 01:55:05;;;;;;;;;15.67;10.67;;;;;10.59;66.02;101548.31;5059148;28;45416;-51
2022/11/05 01:57:31;;;;;;;;;11.67;10.33;;;;;10.59;66.20;101540.34;5039414;28;45183;-44
2022/11/05 01:59:59;;;;;;;;;15.00;10.67;;;;;10.59;66.49;101546.50;5039079;28;45402;-52
2022/11/05 02:02:25;;;;;;;;;11.00;9.00;;;;;10.58;66.01;101554.63;5038844;28;46318;-52
2022/11/05 02:04:56;;;;;;;;;7.33;7.00;;;;;10.57;66.30;101559.06;5038662;28;45478;-56
2022/11/05 02:07:24;;;;;;;;;12.00;10.67;;;;;10.57;66.08;101551.09;5038760;28;45228;-52
2022/11/05 02:10:04;;;;;;;;;12.67;10.33;;;;;10.56;66.03;101544.06;5038834;28;45370;-44
2022/11/05 02:12:31;;;;;;;;;11.33;9.33;;;;;10.56;66.24;101541.41;5038174;28;46100;-51
2022/11/05 02:14:57;;;;;;;;;15.33;10.67;;;;;10.45;66.50;101517.53;5038795;28;45535;-46
2022/11/05 02:17:37;;;;;;;;;16.00;10.67;;;;;10.53;66.56;101552.31;5037689;28;45379;-49
2022/11/05 02:20:29;;;;;;;;;18.00;10.00;;;;;10.47;66.62;101542.19;5039000;28;45347;-52
2022/11/05 02:23:33;;;;;;;;;10.00;7.33;;;;;10.49;66.20;101546.41;5038465;28;46078;-55
2022/11/05 02:26:12;;;;;;;;;11.67;10.00;;;;;10.48;66.38;101547.38;5038126;28;45502;-53
2022/11/05 02:29:08;;;;;;;;;21.33;11.00;;;;;10.47;66.39;101548.34;5038463;28;45491;-52
2022/11/05 02:31:41;;;;;;;;;10.67;8.00;;;;;10.47;66.53;101550.16;5047490;28;45548;-49
2022/11/05 02:34:27;;;;;;;;;9.00;8.33;;;;;10.47;66.92;101550.16;5058374;28;47076;-46
2022/11/05 02:37:15;;;;;;;;;14.33;11.33;;;;;10.36;66.82;101537.72;5058334;28;45423;-50
2022/11/05 02:39:50;;;;;;;;;15.67;11.00;;;;;10.45;67.11;101560.09;5058347;28;45335;-51
2022/11/05 02:42:33;;;;;;;;;12.33;9.00;;;;;10.46;66.92;101561.78;5058658;28;45594;-54
2022/11/05 02:45:20;;;;;;;;;11.33;9.00;;;;;10.44;66.59;101558.38;5057827;28;47308;-53
2022/11/05 02:47:53;;;;;;;;;11.00;7.67;;;;;10.39;66.62;101539.31;5058273;28;45170;-50
2022/11/05 02:50:27;;;;;;;;;11.00;7.00;;;;;10.43;66.51;101548.72;5058497;28;45299;-50
2022/11/05 02:52:53;;;;;;;;;9.00;9.00;;;;;10.43;66.89;101554.03;5058506;28;45331;-50
2022/11/05 02:55:24;;;;;;;;;8.00;7.00;;;;;10.42;66.47;101563.00;5057948;28;46400;-50
2022/11/05 02:57:49;;;;;;;;;5.67;5.67;;;;;10.28;66.73;101537.53;5057993;28;45407;-47
2022/11/05 03:00:36;;;;;;;;;8.33;6.00;;;;;10.39;66.46;101547.28;5040409;28;45484;-55
2022/11/05 03:03:04;;;;;;;;;8.00;6.00;;;;;10.38;66.66;101546.44;5038357;28;45448;-53
2022/11/05 03:05:43;;;;;;;;;10.00;7.00;;;;;10.37;66.92;101543.94;5037789;28;45991;-50
2022/11/05 03:08:18;;;;;;;;;8.67;6.67;;;;;10.37;66.57;101546.59;5037721;28;45262;-55
2022/11/05 03:11:01;;;;;;;;;6.00;6.00;;;;;10.37;67.22;101543.94;5037961;28;45220;-54
2022/11/05 03:13:48;;;;;;;;;10.33;5.33;;;;;10.24;66.99;101526.31;5038032;28;45420;-50
2022/11/05 03:16:38;;;;;;;;;9.33;7.33;;;;;10.33;67.15;101545.97;5037289;28;45449;-52
2022/11/05 03:19:19;;;;;;;;;7.00;5.00;;;;;10.33;67.25;101545.97;5037501;28;45534;-52
2022/11/05 03:21:51;;;;;;;;;11.33;7.00;;;;;10.32;67.02;101546.09;5037869;28;45457;-51
2022/11/05 03:24:27;;;;;;;;;8.67;6.67;;;;;10.30;67.58;101537.41;5037933;28;45351;-50
2022/11/05 03:26:55;;;;;;;;;9.33;7.00;;;;;10.28;67.43;101540.19;5037456;28;47086;-54
2022/11/05 03:29:29;;;;;;;;;7.00;7.00;;;;;10.20;67.29;101524.00;5037372;28;45376;-52
2022/11/05 03:31:58;;;;;;;;;6.00;6.00;;;;;10.30;67.69;101540.06;5037649;28;45398;-50
2022/11/05 03:34:30;;;;;;;;;14.33;9.33;;;;;10.30;67.87;101545.38;5037602;28;45354;-55
2022/11/05 03:36:56;;;;;;;;;10.00;7.00;;;;;10.31;67.97;101537.28;5037240;28;47314;-53
2022/11/05 03:39:29;;;;;;;;;9.33;8.00;;;;;10.31;67.71;101537.28;5037257;28;45436;-51
2022/11/05 03:41:57;;;;;;;;;12.33;8.67;;;;;10.31;67.77;101541.75;5036987;28;45369;-52
2022/11/05 03:44:29;;;;;;;;;14.00;11.00;;;;;10.31;68.04;101537.28;5036383;28;45387;-51
2022/11/05 03:47:01;;;;;;;;;13.33;11.00;;;;;10.30;67.53;101537.41;5037025;28;46306;-53
2022/11/05 03:49:34;;;;;;;;;11.00;9.67;;;;;10.22;67.48;101524.69;5037144;28;45328;-51
2022/11/05 03:52:26;;;;;;;;;13.67;8.00;;;;;10.18;67.91;101526.75;5043802;28;45398;-53
2022/11/05 03:54:52;;;;;;;;;13.00;9.67;;;;;10.18;67.92;101521.44;5057319;28;45357;-48
2022/11/05 03:57:30;;;;;;;;;14.67;11.00;;;;;10.19;67.79;101525.78;5056968;28;46972;-53
2022/11/05 03:59:55;;;;;;;;;10.00;10.00;;;;;10.04;67.66;101519.06;5056376;28;45377;-55
2022/11/05 04:02:24;;;;;;;;;11.33;11.00;;;;;10.04;68.25;101537.69;5057170;28;45303;-52
2022/11/05 04:04:50;;;;;;;;;15.00;10.00;;;;;10.05;67.83;101536.72;5056538;28;45446;-53
2022/11/05 04:17:05;;;;;;;;;10.33;10.33;;;;;10.03;67.91;101528.03;5037234;28;45414;-55
2022/11/05 04:18:16;;;;;;;;;16.00;10.00;;;;;10.03;68.14;101543.97;5036570;28;45999;-50
2022/11/05 04:26:09;;;;;;;;;17.00;12.33;;;;;10.02;67.84;101554.72;5036902;28;45486;-46
2022/11/05 04:31:18;;;;;;;;;14.67;10.67;;;;;9.94;68.06;101545.56;5036644;28;45249;-54
2022/11/05 04:33:44;;;;;;;;;15.67;11.00;;;;;10.00;67.84;101549.53;5036838;28;45296;-54
2022/11/05 04:36:09;;;;;;;;;13.67;9.00;;;;;10.00;67.74;101545.06;5036903;28;45553;-53
2022/11/05 04:38:34;;;;;;;;;13.00;11.00;;;;;9.97;67.83;101544.44;5036191;28;46634;-51
2022/11/05 04:41:16;;;;;;;;;13.00;13.00;;;;;9.96;67.99;101561.38;5036643;28;45307;-48
2022/11/05 04:43:42;;;;;;;;;11.00;9.33;;;;;9.91;67.86;101560.91;5036237;28;45380;-52
2022/11/05 04:46:08;;;;;;;;;16.67;11.00;;;;;9.90;67.83;101562.72;5036530;28;45522;-49
2022/11/05 04:48:34;;;;;;;;;18.33;12.67;;;;;9.89;67.76;101558.34;5036349;28;45307;-42
2022/11/05 04:50:59;;;;;;;;;22.00;11.67;;;;;9.86;67.92;101557.75;5036615;28;45599;-42
2022/11/05 04:53:24;;;;;;;;;13.00;11.00;;;;;9.81;68.03;101557.28;5036547;28;45371;-55
2022/11/05 04:55:50;;;;;;;;;9.67;9.00;;;;;9.74;68.11;101560.44;5039930;28;45411;-53
2022/11/05 04:58:15;;;;;;;;;10.67;10.67;;;;;9.72;68.07;101559.69;5039702;28;47213;-55
2022/11/05 05:00:41;;;;;;;;;19.00;12.00;;;;;9.70;68.65;101553.66;5039386;28;45458;-55
2022/11/05 05:03:06;;;;;;;;;13.67;12.00;;;;;9.68;68.20;101557.41;5039878;28;45399;-51
2022/11/05 05:05:31;;;;;;;;;14.00;11.67;;;;;9.57;68.31;101552.09;5039927;28;45312;-45
2022/11/05 05:08:01;;;;;;;;;16.33;10.00;;;;;9.61;68.99;101573.00;5039721;28;45380;-51
2022/11/05 05:10:26;;;;;;;;;17.33;10.67;;;;;9.55;69.40;101564.63;5039784;28;45372;-49
2022/11/05 05:12:52;;;;;;;;;11.00;10.00;;;;;9.55;69.93;101580.56;5039766;28;45288;-50
2022/11/05 05:15:17;;;;;;;;;16.67;11.00;;;;;9.53;69.60;101578.06;5039186;28;45241;-51
2022/11/05 05:17:43;;;;;;;;;14.00;10.67;;;;;9.56;69.52;101576.94;5039598;28;45666;-44
2022/11/05 05:22:53;;;;;;;;;5.00;3.67;;;;;9.52;69.16;101571.03;5039660;28;45225;-51
2022/11/05 05:25:19;;;;;;;;;10.00;7.00;;;;;9.61;69.06;101580.97;5039653;28;45483;-50
2022/11/05 05:27:44;;;;;;;;;15.67;10.67;;;;;9.58;69.24;101591.81;5039230;28;47163;-52
2022/11/05 05:30:10;;;;;;;;;13.00;10.00;;;;;9.43;69.78;101566.44;5039305;28;45408;-53
2022/11/05 05:32:35;;;;;;;;;15.00;9.00;;;;;9.58;69.13;101583.00;5039013;28;45414;-54
2022/11/05 05:35:01;;;;;;;;;11.00;9.00;;;;;9.57;69.32;101587.47;5039524;28;45379;-52
2022/11/05 05:37:26;;;;;;;;;11.33;10.67;;;;;9.52;69.96;101586.97;5038988;28;46380;-55
2022/11/05 05:39:52;;;;;;;;;8.00;7.67;;;;;9.41;69.50;101579.00;5039422;28;45383;-49
2022/11/05 05:42:20;;;;;;;;;9.33;9.33;;;;;9.31;69.84;101572.69;5039127;28;45419;-48
2022/11/05 05:44:45;;;;;;;;;10.67;6.67;;;;;9.40;69.37;101586.13;5039170;28;45237;-55
2022/11/05 05:47:12;;;;;;;;;11.67;10.33;;;;;9.45;69.25;101583.94;5038902;28;46226;-51
2022/11/05 05:49:38;;;;;;;;;12.00;10.00;;;;;9.43;69.16;101583.22;5039057;28;45283;-48
2022/11/05 05:52:04;;;;;;;;;10.00;8.33;;;;;9.38;69.87;101585.38;5039277;28;45250;-52
2022/11/05 05:54:30;;;;;;;;;10.00;9.00;;;;;9.35;70.04;101592.72;5039425;28;45478;-52
2022/11/05 05:56:55;;;;;;;;;13.33;10.67;;;;;9.39;69.92;101586.22;5038720;28;46512;-55
2022/11/05 05:59:20;;;;;;;;;13.00;10.00;;;;;9.38;69.90;101576.56;5038869;28;45381;-55
2022/11/05 06:01:46;;;;;;;;;14.33;10.33;;;;;9.44;70.01;101584.09;5038998;28;45370;-56
2022/11/05 06:04:11;;;;;;;;;13.33;8.67;;;;;9.35;69.67;101577.66;5039081;28;45360;-50
2022/11/05 06:06:37;;;;;;;;;13.00;9.00;;;;;9.39;69.52;101597.69;5037643;28;46953;-55
2022/11/05 06:09:02;;;;;;;;;7.00;7.00;;;;;9.34;70.00;101599.00;5038256;28;45338;-52
2022/11/05 06:11:28;;;;;;;;;11.33;10.00;;;;;9.30;69.93;101594.91;5039062;28;45409;-55
2022/11/05 06:13:54;;;;;;;;;10.67;9.00;;;;;9.18;70.41;101584.25;5038919;28;45341;-56
2022/11/05 06:16:19;;;;;;;;;18.00;11.00;;;;;9.30;69.57;101594.91;5038698;28;45469;-55
2022/11/05 06:18:45;;;;;;;;;15.67;11.00;;;;;9.28;70.03;101596.84;5038724;28;45434;-50
2022/11/05 06:21:13;;;;;;;;;10.33;10.33;;;;;9.18;69.76;101597.53;5038571;28;45867;-52
2022/11/05 06:23:40;;;;;;;;;17.67;13.00;;;;;9.23;69.92;101600.69;5039006;28;45433;-49
2022/11/05 06:26:12;;;;;;;;;13.33;11.00;;;;;9.22;69.65;101608.75;5055337;28;46219;-55
2022/11/05 06:28:37;;;;;;;;;11.00;9.33;;;;;9.23;70.35;101605.16;5058512;28;45160;-54
2022/11/05 06:31:03;;;;;;;;;10.67;10.67;;;;;9.19;69.61;101601.06;5058514;28;45384;-53
2022/11/05 06:33:28;;;;;;;;;13.00;11.33;;;;;9.17;70.38;101603.81;5058841;28;45331;-44
2022/11/05 06:35:56;;;;;;;;;10.67;10.00;;;;;9.18;70.46;101616.09;5058649;28;46386;-56
2022/11/05 06:38:22;;;;;;;;;12.67;11.00;;;;;9.10;70.53;101607.91;5058389;28;45334;-53
2022/11/05 06:40:47;;;;;;;;;13.33;10.00;;;;;9.13;69.97;101617.44;5058473;28;45335;-55
2022/11/05 06:43:13;;;;;;;;;11.33;9.67;;;;;9.12;71.13;101605.97;5058837;28;45300;-54
2022/11/05 06:45:38;;;;;;;;;12.33;9.67;;;;;9.11;70.19;101606.94;5057846;28;46987;-55
2022/11/05 06:48:04;;;;;;;;;11.67;11.67;;;;;9.08;70.70;101609.81;5058008;28;45392;-53
2022/11/05 06:50:29;;;;;;;;;11.00;9.33;;;;;9.06;71.11;101601.13;5058294;28;45268;-50
2022/11/05 06:52:56;;;;;;;;;13.00;10.00;;;;;9.09;70.53;101608.84;5058454;28;45490;-53
2022/11/05 06:55:22;;;;;;;;;15.00;9.67;;;;;9.14;71.07;101617.34;5058577;28;45297;-55
2022/11/05 06:57:48;;;;;;;;;12.00;9.67;;;;;9.09;70.30;101614.16;5058014;28;45403;-55
2022/11/05 07:00:14;;;;;;;;;12.33;12.33;;;;;9.15;70.59;101632.28;5049039;28;45212;-47
2022/11/05 07:02:39;;;;;;;;;14.00;9.00;;;;;9.19;70.07;101623.13;5038146;28;45239;-45
2022/11/05 07:05:06;;;;;;;;;16.67;11.00;;;;;9.27;70.44;101622.56;5037566;28;46046;-48
2022/11/05 07:07:31;;;;;;;;;10.67;9.33;;;;;9.29;70.24;101622.44;5038096;28;45280;-52
2022/11/05 07:09:57;;;;;;;;;11.00;11.00;;;;;9.27;70.06;101619.91;5037667;28;45454;-55
2022/11/05 07:12:22;;;;;;;;;10.67;8.67;;;;;9.30;69.59;101634.72;5038202;28;45312;-50
2022/11/05 07:14:47;;;;;;;;;11.00;10.00;;;;;9.33;70.15;101645.97;5037787;28;45420;-54
2022/11/05 07:17:15;;;;;;;;;12.67;12.33;;;;;9.37;69.62;101635.97;5037323;28;45466;-52
2022/11/05 07:19:40;;;;;;;;;15.33;14.00;;;;;9.36;69.91;101627.16;5037978;28;45466;-54
2022/11/05 07:22:06;;;;;;;;;13.00;9.67;;;;;9.34;69.97;101630.88;5036462;28;45489;-54
2022/11/05 07:24:31;;;;;;;;;14.00;9.00;;;;;9.33;70.40;101637.16;5037453;28;46184;-45
2022/11/05 07:26:57;;;;;;;;;15.67;10.00;;;;;9.35;69.93;101644.03;5037296;28;45345;-48
2022/11/05 07:29:22;;;;;;;;;20.33;13.00;;;;;9.35;69.74;101640.53;5037489;28;45754;-55
2022/11/05 07:31:47;;;;;;;;;14.33;11.00;;;;;9.37;69.71;101634.16;5037920;28;45349;-55
2022/11/05 07:34:13;;;;;;;;;14.67;12.67;;;;;9.37;69.41;101635.97;5037404;28;45284;-55
2022/11/05 07:36:39;;;;;;;;;18.67;14.00;;;;;9.29;69.93;101635.69;5037581;28;45253;-56
2022/11/05 07:39:04;;;;;;;;;12.33;9.33;;;;;9.28;70.66;101644.63;5037660;28;45214;-55
2022/11/05 07:41:30;;;;;;;;;13.33;9.00;;;;;9.33;70.16;101650.44;5037772;28;45508;-55
2022/11/05 07:43:55;;;;;;;;;16.67;10.67;;;;;9.36;70.05;101651.06;5044854;28;47011;-56
2022/11/05 07:46:20;;;;;;;;;13.33;9.33;;;;;9.38;70.60;101654.44;5056964;28;45317;-55
2022/11/05 07:48:45;;;;;;;;;17.67;13.00;;;;;9.37;70.56;101657.22;5057821;28;45418;-53
2022/11/05 07:51:11;;;;;;;;;13.33;11.00;;;;;9.44;70.12;101663.75;5057658;28;45383;-54
2022/11/05 07:53:36;;;;;;;;;14.00;11.67;;;;;9.50;69.65;101653.50;5057378;28;46196;-55
2022/11/05 07:56:01;;;;;;;;;15.33;12.00;;;;;9.51;70.05;101654.34;5057588;28;45347;-54
2022/11/05 07:58:27;;;;;;;;;13.00;10.00;;;;;9.58;69.82;101662.69;5057558;28;45795;-52
2022/11/05 08:00:52;;;;;;;;;16.00;14.00;;;;;9.57;69.92;101666.31;5056855;28;45334;-55
2022/11/05 08:03:18;;;;;;;;;16.67;11.00;;;;;9.59;69.31;101662.56;5057059;28;46160;-50
2022/11/05 08:05:45;;;;;;;;;18.00;12.33;;;;;9.57;70.09;101653.03;5056998;28;45327;-41
2022/11/05 08:08:13;;;;;;;;;16.67;11.00;;;;;9.64;69.41;101660.38;5057167;28;45442;-41
2022/11/05 08:10:39;;;;;;;;;13.67;11.67;;;;;9.67;69.75;101654.84;5057385;28;45313;-51
2022/11/05 08:13:06;;;;;;;;;18.67;14.00;;;;;9.75;69.14;101663.06;5057003;28;46155;-53
2022/11/05 08:15:33;;;;;;;;;11.67;10.67;;;;;9.82;69.53;101667.91;5056950;28;45461;-54
2022/11/05 08:17:59;;;;;;;;;18.50;16.00;;;;;9.90;69.17;101657.53;5056958;28;45429;-53
2022/11/05 08:20:25;;;;;;;;;15.00;12.00;;;;;9.98;69.05;101663.94;5056170;28;45521;-42
2022/11/05 08:22:50;;;;;;;;;10.00;10.00;;;;;9.99;69.21;101664.81;5055465;28;47180;-42
2022/11/05 08:25:16;;;;;;;;;14.67;11.00;;;;;10.09;69.01;101660.44;5055483;28;45413;-42
2022/11/05 08:27:41;;;;;;;;;15.33;14.00;;;;;10.17;68.50;101663.34;5056989;28;45279;-43
2022/11/05 08:30:08;;;;;;;;;13.67;11.00;;;;;10.23;68.65;101652.19;5059059;28;45261;-42
2022/11/05 08:32:33;;;;;;;;;11.00;10.00;;;;;10.29;68.44;101661.56;5058924;28;47478;-46
2022/11/05 08:34:59;;;;;;;;;14.67;12.00;;;;;10.27;68.26;101650.19;5060300;28;45241;-49
2022/11/05 08:37:24;;;;;;;;;15.33;11.67;;;;;10.38;68.42;101654.66;5060487;28;45327;-41
2022/11/05 08:39:49;;;;;;;;;13.67;10.00;;;;;10.49;68.31;101679.44;5060611;28;45216;-41
2022/11/05 08:42:15;;;;;;;;;11.33;11.00;;;;;10.57;68.03;101668.16;5060240;28;45449;-47
2022/11/05 08:44:40;;;;;;;;;9.33;8.33;;;;;10.57;67.97;101659.31;5060270;28;45418;-47
2022/11/05 08:47:06;;;;;;;;;10.00;10.00;;;;;10.62;67.87;101670.44;5059721;28;45369;-41
2022/11/05 08:49:31;;;;;;;;;14.67;11.67;;;;;10.74;67.94;101658.78;5060383;28;45446;-44
2022/11/05 08:51:56;;;;;;;;;15.00;10.33;;;;;10.91;66.97;101674.25;5059899;28;45318;-46
2022/11/05 08:54:22;;;;;;;;;12.00;10.67;;;;;11.11;67.35;101677.06;5060207;28;45387;-46
2022/11/05 08:56:47;;;;;;;;;17.00;11.67;;;;;11.19;66.53;101674.63;5060364;28;45335;-42
2022/11/05 08:59:12;;;;;;;;;11.00;11.00;;;;;11.40;66.12;101674.63;5060166;28;45972;-42
2022/11/05 09:01:38;;;;;;;;;11.00;9.33;;;;;11.53;65.88;101688.59;5060019;28;45243;-48
2022/11/05 09:04:03;;;;;;;;;12.00;8.67;;;;;11.53;66.00;101691.28;5060040;28;45417;-42
2022/11/05 09:06:29;;;;;;;;;18.67;10.67;;;;;11.63;65.72;101686.88;5059916;28;45744;-41
2022/11/05 09:08:54;;;;;;;;;13.00;8.00;;;;;11.82;65.60;101678.13;5060151;28;45389;-42
2022/11/05 09:11:20;;;;;;;;;13.33;11.00;;;;;11.86;65.02;101682.25;5058483;28;47177;-43
2022/11/05 09:13:45;;;;;;;;;15.33;13.00;;;;;11.95;65.12;101678.78;5060115;28;45418;-43
2022/11/05 09:16:24;;;;;;;;;10.33;8.33;;;;;12.11;64.26;101678.31;5059963;28;45352;-44
2022/11/05 09:18:50;;;;;;;;;15.67;11.67;;;;;12.05;64.54;101665.53;5060484;28;45430;-41
2022/11/05 09:21:16;;;;;;;;;15.00;12.33;;;;;12.06;64.34;101661.03;5060196;28;45465;-47
2022/11/05 09:23:42;;;;;;;;;11.33;11.00;;;;;12.04;64.54;101662.97;5059449;28;45364;-45
2022/11/05 09:26:09;;;;;;;;;13.67;11.00;;;;;12.11;64.47;101662.31;5060115;28;45483;-42
2022/11/05 09:28:35;;;;;;;;;11.00;10.33;;;;;12.12;63.95;101660.47;5060240;28;45380;-42
2022/11/05 09:31:06;;;;;;;;;12.67;12.33;;;;;12.08;64.45;101649.22;5059544;28;45329;-41
2022/11/05 09:33:31;;;;;;;;;15.00;12.00;;;;;12.18;64.34;101660.81;5059451;28;45265;-44
2022/11/05 09:35:58;;;;;;;;;13.00;11.00;;;;;12.24;64.12;101665.59;5059464;28;45328;-48
2022/11/05 09:38:24;;;;;;;;;12.33;12.00;;;;;12.35;63.99;101661.13;5059527;28;45311;-44
2022/11/05 09:40:59;;;;;;;;;17.33;13.33;;;;;12.48;63.46;101667.06;5057900;28;47025;-49
2022/11/05 09:43:40;;;;;;;;;13.00;11.33;;;;;12.72;63.05;101648.00;5059082;28;45429;-46
2022/11/05 09:46:31;;;;;;;;;17.00;12.00;;;;;13.38;61.91;101650.84;5058948;28;45454;-45
2022/11/05 09:49:19;;;;;;;;;14.33;13.67;;;;;13.89;60.51;101651.44;5058261;28;45376;-47
2022/11/05 09:51:46;;;;;;;;;15.00;11.67;;;;;14.10;58.96;101661.91;5059041;28;47339;-41
2022/11/05 09:54:13;;;;;;;;;13.33;11.33;;;;;13.94;59.76;101657.16;5058883;28;45449;-45
2022/11/05 09:56:41;;;;;;;;;15.67;11.00;;;;;13.68;60.27;101639.09;5059377;28;45366;-44
2022/11/05 09:59:25;;;;;;;;;14.00;13.00;;;;;13.65;60.28;101658.13;5059324;28;45304;-51
2022/11/05 10:02:01;;;;;;;;;13.33;11.33;;;;;13.51;60.76;101655.03;5058610;28;46553;-41
2022/11/05 10:04:30;;;;;;;;;15.00;9.67;;;;;13.44;61.04;101658.31;5058773;28;45449;-43
2022/11/05 10:07:00;;;;;;;;;18.00;11.00;;;;;13.43;61.26;101658.44;5058922;28;45382;-45
2022/11/05 10:09:46;;;;;;;;;15.33;13.00;;;;;13.40;61.01;101664.91;5059472;28;45471;-45
2022/11/05 10:12:23;;;;;;;;;17.00;14.00;;;;;13.19;61.51;101651.69;5058635;28;46101;-42
2022/11/05 10:15:10;;;;;;;;;15.67;12.67;;;;;13.28;61.87;101657.19;5058799;28;45388;-42
2022/11/05 10:17:37;;;;;;;;;11.67;8.67;;;;;13.28;61.88;101651.84;5058868;28;45347;-45
2022/11/05 10:20:19;;;;;;;;;13.67;12.00;;;;;13.31;61.82;101649.72;5059045;28;45530;-46
2022/11/05 10:22:45;;;;;;;;;11.67;9.00;;;;;13.30;62.43;101641.84;5058757;28;46265;-45
2022/11/05 10:25:20;;;;;;;;;17.67;14.00;;;;;13.16;62.54;101643.94;5058583;28;45666;-42
2022/11/05 10:27:52;;;;;;;;;13.00;11.67;;;;;13.16;62.88;101654.63;5058656;28;45286;-42
2022/11/05 10:30:17;;;;;;;;;14.00;11.33;;;;;13.04;63.41;101653.09;5058750;28;45433;-42
2022/11/05 10:32:44;;;;;;;;;16.67;15.67;;;;;12.93;63.30;101642.53;5058393;28;45799;-42
2022/11/05 10:35:17;;;;;;;;;19.33;15.67;;;;;13.03;63.33;101653.25;5058624;28;45414;-43
2022/11/05 10:37:44;;;;;;;;;17.33;13.33;;;;;12.94;63.37;101653.09;5058715;28;45212;-46
2022/11/05 10:40:36;;;;;;;;;19.33;13.00;;;;;12.90;63.77;101657.03;5058671;28;45454;-48
2022/11/05 10:43:09;;;;;;;;;18.33;16.00;;;;;12.92;64.42;101659.53;5058236;28;45268;-48
2022/11/05 10:45:37;;;;;;;;;13.00;8.00;;;;;12.92;63.35;101662.22;5057703;28;45725;-42
2022/11/05 10:48:37;;;;;;;;;9.00;9.00;;;;;12.92;63.83;101660.38;5058232;28;45635;-46
2022/11/05 10:51:02;;;;;;;;;20.67;14.67;;;;;12.94;64.13;101668.28;5058477;28;45469;-49
2022/11/05 10:53:32;;;;;;;;;12.00;9.00;;;;;12.92;64.35;101664.88;5057379;28;47080;-40
2022/11/05 10:55:58;;;;;;;;;11.67;8.67;;;;;12.96;63.45;101663.63;5058096;28;45268;-43
2022/11/05 10:58:29;;;;;;;;;12.67;12.67;;;;;13.00;63.44;101667.69;5058047;28;45279;-40
2022/11/05 11:00:54;;;;;;;;;14.00;8.67;;;;;13.05;63.32;101662.78;5058327;28;45249;-41
2022/11/05 11:03:47;;;;;;;;;14.33;11.67;;;;;13.08;64.12;101664.34;5057667;28;46198;-46
2022/11/05 11:06:19;;;;;;;;;14.33;11.67;;;;;13.07;64.06;101671.50;5057840;28;45310;-47
2022/11/05 11:08:47;;;;;;;;;19.33;15.00;;;;;13.05;63.78;101660.09;5057952;28;45275;-47
2022/11/05 11:11:29;;;;;;;;;22.00;13.33;;;;;13.06;63.97;101652.94;5058293;28;45449;-42
2022/11/05 11:14:10;;;;;;;;;17.67;15.33;;;;;13.07;63.89;101652.81;5057605;28;46296;-45
2022/11/05 11:16:44;;;;;;;;;19.00;13.33;;;;;13.06;64.08;101648.47;5057757;28;45346;-46
2022/11/05 11:19:25;;;;;;;;;19.33;17.67;;;;;13.09;64.55;101650.00;5057784;28;45270;-47
2022/11/05 11:22:02;;;;;;;;;10.00;5.67;;;;;13.16;63.67;101649.28;5058004;28;45360;-47
2022/11/05 11:24:30;;;;;;;;;17.33;10.67;;;;;13.17;63.58;101642.97;5057282;28;47225;-46
2022/11/05 11:27:05;;;;;;;;;9.00;7.00;;;;;13.24;63.73;101643.28;5057707;28;45384;-46
2022/11/05 11:29:34;;;;;;;;;14.67;11.67;;;;;13.31;63.28;101643.53;5057716;28;45506;-46
2022/11/05 11:32:01;;;;;;;;;12.67;7.00;;;;;13.27;63.96;101623.44;5057576;28;45386;-46
2022/11/05 11:34:32;;;;;;;;;10.33;7.00;;;;;13.43;62.97;101642.38;5057463;28;47281;-42
2022/11/05 11:37:06;;;;;;;;;4.00;4.00;;;;;13.48;63.04;101626.75;5057559;28;45288;-42
2022/11/05 11:39:32;;;;;;;;;6.00;6.00;;;;;13.56;62.74;101629.56;5057582;28;45406;-49
2022/11/05 11:42:15;;;;;;;;;6.67;4.00;;;;;13.59;62.82;101639.97;5057710;27;45464;-44
2022/11/05 11:44:46;;;;;;;;;3.00;3.00;;;;;13.60;62.03;101622.94;5057376;28;46295;-43
2022/11/05 11:47:16;;;;;;;;;3.00;3.00;;;;;13.65;61.84;101618.03;5057087;28;45568;-42
2022/11/05 11:49:44;;;;;;;;;4.00;4.00;;;;;13.73;61.96;101626.13;5057373;28;45648;-42
2022/11/05 11:52:13;;;;;;;;;2.00;2.00;;;;;13.79;61.85;101618.53;5057586;28;45222;-41
2022/11/05 11:54:39;;;;;;;;;2.00;2.00;;;;;13.85;61.82;101620.59;5057017;28;46224;-42
2022/11/05 11:57:28;;;;;;;;;4.00;4.00;;;;;13.92;61.45;101624.41;5057143;28;45439;-44
2022/11/05 11:59:56;;;;;;;;;2.33;1.67;;;;;13.95;60.82;101621.44;5014946;28;45259;-45
2022/11/05 12:02:41;;;;;;;;;1.33;1.33;;;;;13.98;60.77;101619.28;5015232;28;45580;-47
2022/11/05 12:05:28;;;;;;;;;3.00;1.00;;;;;14.05;60.95;101622.22;5013567;28;46661;-44
2022/11/05 12:07:59;;;;;;;;;1.33;1.33;;;;;14.09;60.49;101620.94;5014849;28;45447;-47
2022/11/05 12:10:27;;;;;;;;;6.33;3.00;;;;;14.15;60.80;101623.00;5014618;28;45277;-48